createdAt,value
2022-09-04T00:01:15.777Z,21.23
2022-09-04T00:06:21.010Z,21.10
2022-09-04T00:11:31.482Z,21.09
2022-09-04T00:16:43.012Z,21.08
2022-09-04T00:21:50.451Z,21.18
2022-09-04T00:26:58.853Z,21.15
2022-09-04T00:32:09.550Z,21.15
2022-09-04T00:37:13.342Z,21.14
2022-09-04T00:42:30.882Z,21.01
2022-09-04T00:47:53.892Z,21.02
2022-09-04T00:53:10.654Z,20.99
2022-09-04T00:58:25.082Z,21.00
2022-09-04T01:03:39.755Z,20.97
2022-09-04T01:08:59.937Z,20.92
2022-09-04T01:14:13.051Z,20.85
2022-09-04T01:19:30.121Z,20.86
2022-09-04T01:25:01.567Z,20.73
2022-09-04T01:30:08.243Z,20.80
2022-09-04T01:35:18.791Z,20.79
2022-09-04T01:40:35.082Z,20.70
2022-09-04T01:46:11.158Z,20.72
2022-09-04T01:51:21.715Z,20.66
2022-09-04T01:56:29.714Z,20.69
2022-09-04T02:01:38.406Z,20.57
2022-09-04T02:06:50.356Z,20.52
2022-09-04T02:12:04.117Z,20.52
2022-09-04T02:17:12.903Z,20.50
2022-09-04T02:22:25.985Z,20.53
2022-09-04T02:27:33.177Z,20.37
2022-09-04T02:32:39.023Z,20.32
2022-09-04T02:37:50.541Z,20.29
2022-09-04T02:43:03.339Z,20.25
2022-09-04T02:48:13.598Z,20.16
2022-09-04T02:53:27.329Z,20.07
2022-09-04T02:58:39.645Z,20.09
2022-09-04T03:03:46.040Z,20.11
2022-09-04T03:08:54.685Z,20.16
2022-09-04T03:14:02.779Z,20.06
2022-09-04T03:19:16.506Z,19.94
2022-09-04T03:24:24.545Z,19.95
2022-09-04T03:29:31.975Z,19.94
2022-09-04T03:34:42.716Z,19.87
2022-09-04T03:39:55.377Z,19.88
2022-09-04T03:45:10.946Z,19.80
2022-09-04T03:50:20.081Z,19.64
2022-09-04T03:55:44.868Z,19.74
2022-09-04T04:00:57.118Z,19.67
2022-09-04T04:06:09.803Z,19.77
2022-09-04T04:11:27.328Z,19.66
2022-09-04T04:16:40.528Z,19.75
2022-09-04T04:21:55.856Z,19.70
2022-09-04T04:27:10.822Z,19.62
2022-09-04T04:32:29.245Z,19.50
2022-09-04T04:37:43.539Z,19.53
2022-09-04T04:42:54.478Z,19.54
2022-09-04T04:48:23.742Z,19.52
2022-09-04T04:53:32.240Z,19.48
2022-09-04T04:58:45.199Z,19.59
2022-09-04T05:03:56.100Z,19.64
2022-09-04T05:09:08.090Z,19.58
2022-09-04T05:14:22.035Z,19.59
2022-09-04T05:19:30.104Z,19.56
2022-09-04T05:24:36.767Z,19.51
2022-09-04T05:29:47.506Z,19.47
2022-09-04T05:35:02.052Z,19.45
2022-09-04T05:40:09.857Z,19.46
2022-09-04T05:45:24.599Z,19.43
2022-09-04T05:50:51.807Z,19.45
2022-09-04T05:56:08.895Z,19.48
2022-09-04T06:01:23.600Z,19.52
2022-09-04T06:06:32.335Z,19.48
2022-09-04T06:11:46.339Z,19.51
2022-09-04T06:17:20.705Z,19.59
2022-09-04T06:22:33.342Z,19.71
2022-09-04T06:27:49.626Z,19.79
2022-09-04T06:33:07.053Z,20.10
2022-09-04T06:38:23.405Z,20.59
2022-09-04T06:43:33.885Z,20.84
2022-09-04T06:48:50.951Z,20.79
2022-09-04T06:54:01.311Z,21.04
2022-09-04T06:59:18.837Z,20.95
2022-09-04T07:04:32.024Z,21.09
2022-09-04T07:09:38.596Z,21.19
2022-09-04T07:14:54.911Z,21.27
2022-09-04T07:20:23.501Z,21.36
2022-09-04T07:25:28.819Z,21.35
2022-09-04T07:30:37.833Z,21.40
2022-09-04T07:35:44.600Z,21.54
2022-09-04T07:40:50.846Z,21.59
2022-09-04T07:45:59.825Z,21.67
2022-09-04T07:51:10.210Z,21.75
2022-09-04T07:56:17.712Z,21.82
2022-09-04T08:01:38.217Z,21.83
2022-09-04T08:06:49.761Z,21.95
2022-09-04T08:12:27.972Z,22.01
2022-09-04T08:17:43.046Z,22.07
2022-09-04T08:22:55.998Z,22.15
2022-09-04T08:28:21.931Z,22.19
2022-09-04T08:33:38.294Z,22.26
2022-09-04T08:39:02.375Z,22.30
2022-09-04T08:44:32.541Z,22.35
2022-09-04T08:50:07.791Z,22.41
2022-09-04T08:55:26.948Z,22.46
2022-09-04T09:00:33.072Z,22.48
2022-09-04T09:05:53.518Z,22.55
2022-09-04T09:11:24.482Z,22.59
2022-09-04T09:16:38.240Z,22.57
2022-09-04T09:21:49.223Z,22.62
2022-09-04T09:27:06.906Z,22.60
2022-09-04T09:32:47.705Z,22.65
2022-09-04T09:38:15.591Z,22.70
2022-09-04T09:43:51.235Z,22.74
2022-09-04T09:49:20.358Z,22.72
2022-09-04T09:54:51.735Z,22.78
2022-09-04T10:00:09.455Z,22.79
2022-09-04T10:05:33.379Z,22.80
2022-09-04T10:11:10.895Z,22.85
2022-09-04T10:16:50.001Z,22.83
2022-09-04T10:22:34.729Z,22.82
2022-09-04T10:28:03.606Z,22.82
2022-09-04T10:33:28.091Z,22.85
2022-09-04T10:39:03.374Z,22.82
2022-09-04T10:44:27.577Z,22.81
2022-09-04T10:49:41.233Z,22.84
2022-09-04T10:55:17.965Z,22.86
2022-09-04T11:00:21.776Z,22.86
2022-09-04T11:05:41.744Z,22.89
2022-09-04T11:11:27.243Z,23.00
2022-09-04T11:16:57.175Z,23.00
2022-09-04T11:22:19.961Z,23.03
2022-09-04T11:27:53.540Z,23.04
2022-09-04T11:33:53.138Z,23.02
2022-09-04T11:39:20.604Z,23.05
2022-09-04T11:45:06.683Z,23.08
2022-09-04T11:50:19.293Z,23.19
2022-09-04T11:55:34.784Z,23.17
2022-09-04T12:00:44.137Z,23.13
2022-09-04T12:06:03.552Z,23.12
2022-09-04T12:11:31.979Z,23.11
2022-09-04T12:16:54.055Z,23.19
2022-09-04T12:22:31.202Z,23.32
2022-09-04T12:28:01.036Z,23.26
2022-09-04T12:33:35.162Z,23.29
2022-09-04T12:39:08.822Z,23.30
2022-09-04T12:44:18.790Z,23.31
2022-09-04T12:50:01.166Z,23.39
2022-09-04T12:55:09.950Z,23.40
2022-09-04T13:00:16.884Z,23.49
2022-09-04T13:05:33.314Z,23.43
2022-09-04T13:10:41.789Z,23.40
2022-09-04T13:15:52.745Z,23.46
2022-09-04T13:21:05.356Z,23.47
2022-09-04T13:26:20.349Z,23.51
2022-09-04T13:31:35.458Z,23.58
2022-09-04T13:36:45.583Z,23.56
2022-09-04T13:42:07.940Z,23.57
2022-09-04T13:47:14.962Z,23.65
2022-09-04T13:52:24.152Z,23.61
2022-09-04T13:57:29.688Z,23.63
2022-09-04T14:02:36.593Z,23.72
2022-09-04T14:07:44.905Z,23.72
2022-09-04T14:13:01.115Z,23.68
2022-09-04T14:18:16.448Z,23.70
2022-09-04T14:23:23.390Z,23.71
2022-09-04T14:28:30.915Z,23.73
2022-09-04T14:33:44.109Z,23.75
2022-09-04T14:39:03.859Z,23.75
2022-09-04T14:44:16.931Z,23.79
2022-09-04T14:49:23.834Z,23.89
2022-09-04T14:54:28.723Z,23.87
2022-09-04T14:59:35.422Z,23.88
2022-09-04T15:04:43.907Z,23.95
2022-09-04T15:09:49.428Z,23.94
2022-09-04T15:14:54.057Z,23.93
2022-09-04T15:20:01.546Z,23.98
2022-09-04T15:25:08.970Z,24.02
2022-09-04T15:30:19.738Z,24.02
2022-09-04T15:35:32.734Z,23.96
2022-09-04T15:40:38.946Z,23.99
2022-09-04T15:45:46.455Z,24.02
2022-09-04T15:50:58.433Z,24.01
2022-09-04T15:56:06.985Z,24.13
2022-09-04T16:01:16.840Z,24.12
2022-09-04T16:06:26.561Z,24.23
2022-09-04T16:11:32.637Z,24.28
2022-09-04T16:16:42.127Z,24.27
2022-09-04T16:21:51.280Z,24.25
2022-09-04T16:26:54.690Z,24.30
2022-09-04T16:31:58.844Z,24.30
2022-09-04T16:37:09.488Z,24.33
2022-09-04T16:42:19.354Z,24.34
2022-09-04T16:47:26.429Z,24.33
2022-09-04T16:52:46.305Z,24.38
2022-09-04T16:58:02.404Z,24.38
2022-09-04T17:03:10.685Z,24.38
2022-09-04T17:08:18.193Z,24.34
2022-09-04T17:13:27.710Z,24.43
2022-09-04T17:18:31.506Z,24.41
2022-09-04T17:29:01.922Z,24.37
2022-09-04T17:29:34.719Z,24.47
2022-09-04T17:40:36.454Z,24.45
2022-09-04T17:40:51.887Z,24.48
2022-09-04T17:45:51.208Z,24.48
2022-09-04T17:50:56.102Z,24.48
2022-09-04T17:56:06.813Z,24.52
2022-09-04T18:01:14.984Z,24.52
2022-09-04T18:06:22.307Z,24.43
2022-09-04T18:11:29.856Z,24.34
2022-09-04T18:17:10.917Z,24.39
2022-09-04T18:22:33.251Z,24.35
2022-09-04T18:27:44.641Z,24.48
2022-09-04T18:37:07.475Z,24.44
2022-09-04T18:38:19.505Z,24.51
2022-09-04T18:50:22.453Z,24.48
2022-09-04T18:50:44.667Z,24.45
2022-09-04T18:54:21.417Z,24.41
2022-09-04T18:59:27.976Z,24.51
2022-09-04T19:04:43.426Z,24.41
2022-09-04T19:10:02.831Z,24.31
2022-09-04T19:15:23.939Z,24.43
2022-09-04T19:20:46.440Z,24.40
2022-09-04T19:25:51.569Z,24.41
2022-09-04T19:31:04.013Z,24.42
2022-09-04T19:36:11.678Z,24.37
2022-09-04T19:46:06.570Z,24.27
2022-09-04T19:46:54.489Z,24.32
2022-09-04T19:53:34.100Z,24.27
2022-09-04T19:57:32.364Z,24.13
2022-09-04T20:02:44.673Z,24.11
2022-09-04T20:07:52.991Z,24.16
2022-09-04T20:13:01.120Z,24.08
2022-09-04T20:18:09.967Z,24.17
2022-09-04T20:23:51.891Z,24.10
2022-09-04T20:28:49.380Z,24.08
2022-09-04T20:33:55.900Z,24.02
2022-09-04T20:39:02.542Z,23.99
2022-09-04T20:44:13.360Z,24.00
2022-09-04T20:52:57.425Z,23.91
2022-09-04T20:55:10.630Z,23.89
2022-09-04T21:03:24.846Z,23.80
2022-09-04T21:05:54.209Z,23.80
2022-09-04T21:11:14.843Z,23.81
2022-09-04T21:16:35.942Z,23.69
2022-09-04T21:21:57.193Z,23.70
2022-09-04T21:27:33.176Z,23.59
2022-09-04T21:33:04.133Z,23.61
2022-09-04T21:38:54.483Z,23.61
2022-09-04T21:44:25.281Z,23.54
2022-09-04T21:49:46.138Z,23.50
2022-09-04T21:56:46.200Z,23.53
2022-09-04T22:02:40.452Z,23.47
2022-09-04T22:05:49.932Z,23.40
2022-09-04T22:13:43.499Z,23.45
2022-09-04T22:17:05.154Z,23.53
2022-09-04T22:22:21.123Z,23.49
2022-09-04T22:28:09.847Z,23.47
2022-09-04T22:33:48.246Z,23.42
2022-09-04T22:39:20.186Z,23.39
2022-09-04T22:44:39.369Z,23.30
2022-09-04T22:49:57.305Z,23.18
2022-09-04T22:55:36.529Z,23.09
2022-09-04T23:00:49.460Z,23.08
2022-09-04T23:07:57.501Z,23.01
2022-09-04T23:13:47.122Z,23.04
2022-09-04T23:18:04.970Z,22.92
2022-09-04T23:26:45.673Z,22.89
2022-09-04T23:29:12.584Z,22.87
2022-09-04T23:34:34.412Z,22.80
2022-09-04T23:40:11.180Z,22.63
2022-09-04T23:45:22.186Z,22.69
2022-09-04T23:50:32.940Z,22.75
2022-09-04T23:55:49.897Z,22.80
